Accueil
METAR-TAF:

METAR-TAF

Aéroports :

Aqaba, Jordanie

latitude: 29-38N, longitude: 035-01E, altitude: 53 m

Observation

Le bulletin a été fait il y a 57 minutes, à 06:00 UTC
Vent 5 kt de nord
Température 33°C
Humidité 34%
Pression 1005 hPa
Visibilité 10 km ou plus
pas de nuages en-dessous de 1500 mètres et pas de cumulonimbus.

METAR: OJAQ 250600Z 35005KT CAVOK 33/15 Q1005 NOSIG

Heure: 09:57 (06:57 UTC)

Prévision

Le bulletin a été fait il y a 1 heure et 57 minutes, à 05:00 UTC
Prévision valable du 25 à 06 UTC au 26 à 12 UTC
Vent 10 kt de nord
Visibilité: 7000 m
Probabilité 40% :
Temporairement
du 25 à 12 UTC au 25 à 18 UTC
Vent 18 kt de nord
Visibilité: 5000 m
Chasse-poussière élevée,

TAF: OJAQ 250500Z 2506/2612 36010KT 7000 NSC PROB40 TEMPO 2512/2518 01018KT 5000 BLDU

Observations et prévisions météorologiques de plus de 4000 aéroports (messages METAR et TAF).

Les stations disponibles sont représentées par des disques jaunes et rouges sur la carte.

Passer la souris dessus pour voir le nom de la station.

Cliquer dessus pour voir les observations et prévisions météorologiques.

Pour changer de carte: cliquez sur les boutons verts avec une croix noire pour zoomer, sur le bouton vert avec un tiret pour effectuer un zoom arrière, ou sur les flèches vertes pour les cartes adjacentes.


METAR-TAF: